sensor_id;sensor_type;location;lat;lon;timestamp;pressure;altitude;pressure_sealevel;temperature;humidity
7182;BME280;3632;42.724;23.298;2022-12-20T00:00:55;97254.06;;;2.18;80.10
7182;BME280;3632;42.724;23.298;2022-12-20T00:03:22;97251.44;;;2.27;80.16
7182;BME280;3632;42.724;23.298;2022-12-20T00:05:49;97254.66;;;2.35;79.60
7182;BME280;3632;42.724;23.298;2022-12-20T00:08:16;97264.28;;;2.06;79.47
7182;BME280;3632;42.724;23.298;2022-12-20T00:10:44;97258.97;;;2.28;78.73
7182;BME280;3632;42.724;23.298;2022-12-20T00:13:11;97267.59;;;2.11;79.81
7182;BME280;3632;42.724;23.298;2022-12-20T00:15:38;97259.94;;;2.18;78.66
7182;BME280;3632;42.724;23.298;2022-12-20T00:18:05;97264.28;;;2.07;78.86
7182;BME280;3632;42.724;23.298;2022-12-20T00:20:32;97119.59;;;1.22;78.54
7182;BME280;3632;42.724;23.298;2022-12-20T00:22:59;97050.97;;;0.52;78.51
7182;BME280;3632;42.724;23.298;2022-12-20T00:25:26;97220.59;;;2.14;78.04
7182;BME280;3632;42.724;23.298;2022-12-20T00:27:54;97272.22;;;2.38;77.44
7182;BME280;3632;42.724;23.298;2022-12-20T00:30:21;97154.13;;;1.74;76.91
7182;BME280;3632;42.724;23.298;2022-12-20T00:32:48;97263.00;;;2.39;76.86
7182;BME280;3632;42.724;23.298;2022-12-20T00:35:15;97265.50;;;2.42;75.88
7182;BME280;3632;42.724;23.298;2022-12-20T00:37:41;97257.88;;;2.45;75.83
7182;BME280;3632;42.724;23.298;2022-12-20T00:40:08;97262.19;;;2.37;75.61
7182;BME280;3632;42.724;23.298;2022-12-20T00:42:35;97253.03;;;2.31;75.66
7182;BME280;3632;42.724;23.298;2022-12-20T00:45:04;97210.56;;;2.11;75.10
7182;BME280;3632;42.724;23.298;2022-12-20T00:47:31;97260.72;;;2.23;74.59
7182;BME280;3632;42.724;23.298;2022-12-20T00:49:58;97258.19;;;2.22;74.85
7182;BME280;3632;42.724;23.298;2022-12-20T00:52:24;97211.00;;;1.81;74.21
7182;BME280;3632;42.724;23.298;2022-12-20T00:54:51;97257.53;;;2.11;74.38
7182;BME280;3632;42.724;23.298;2022-12-20T00:57:18;97247.31;;;2.21;74.31
7182;BME280;3632;42.724;23.298;2022-12-20T00:59:44;97256.53;;;2.21;72.95
7182;BME280;3632;42.724;23.298;2022-12-20T01:02:13;97280.91;;;2.17;73.07
7182;BME280;3632;42.724;23.298;2022-12-20T01:04:39;97252.34;;;2.21;74.06
7182;BME280;3632;42.724;23.298;2022-12-20T01:07:06;97119.44;;;0.63;73.55
7182;BME280;3632;42.724;23.298;2022-12-20T01:09:33;97241.31;;;1.67;72.89
7182;BME280;3632;42.724;23.298;2022-12-20T01:12:00;97258.75;;;1.79;73.92
7182;BME280;3632;42.724;23.298;2022-12-20T01:14:27;97132.16;;;1.22;73.43
7182;BME280;3632;42.724;23.298;2022-12-20T01:16:53;97255.19;;;1.96;72.96
7182;BME280;3632;42.724;23.298;2022-12-20T01:19:21;97234.34;;;1.91;73.60
7182;BME280;3632;42.724;23.298;2022-12-20T01:21:49;97159.50;;;1.47;73.26
7182;BME280;3632;42.724;23.298;2022-12-20T01:24:17;97243.34;;;2.05;74.55
7182;BME280;3632;42.724;23.298;2022-12-20T01:26:45;97236.69;;;2.03;74.33
7182;BME280;3632;42.724;23.298;2022-12-20T01:29:12;97246.75;;;2.01;73.73
7182;BME280;3632;42.724;23.298;2022-12-20T01:31:39;97224.97;;;2.00;74.01
7182;BME280;3632;42.724;23.298;2022-12-20T01:34:06;97223.28;;;2.01;73.60
7182;BME280;3632;42.724;23.298;2022-12-20T01:36:35;97154.41;;;1.53;73.95
7182;BME280;3632;42.724;23.298;2022-12-20T01:39:05;97227.53;;;1.99;73.87
7182;BME280;3632;42.724;23.298;2022-12-20T01:41:34;97230.88;;;1.99;73.56
7182;BME280;3632;42.724;23.298;2022-12-20T01:44:02;97209.25;;;1.86;73.94
7182;BME280;3632;42.724;23.298;2022-12-20T01:46:31;97222.56;;;1.94;73.85
7182;BME280;3632;42.724;23.298;2022-12-20T01:49:01;97212.50;;;1.91;73.09
7182;BME280;3632;42.724;23.298;2022-12-20T01:51:32;97175.03;;;1.74;73.08
7182;BME280;3632;42.724;23.298;2022-12-20T01:54:05;97214.16;;;1.95;72.95
7182;BME280;3632;42.724;23.298;2022-12-20T01:56:33;96794.81;;;-0.56;73.25
7182;BME280;3632;42.724;23.298;2022-12-20T01:59:00;97210.81;;;1.93;72.64
7182;BME280;3632;42.724;23.298;2022-12-20T02:01:27;97175.28;;;1.56;73.25
7182;BME280;3632;42.724;23.298;2022-12-20T02:03:54;97207.59;;;1.85;73.48
7182;BME280;3632;42.724;23.298;2022-12-20T02:06:24;97208.44;;;1.84;73.82
7182;BME280;3632;42.724;23.298;2022-12-20T02:08:54;97202.56;;;1.85;72.80
7182;BME280;3632;42.724;23.298;2022-12-20T02:11:44;97193.28;;;1.89;72.58
7182;BME280;3632;42.724;23.298;2022-12-20T02:14:22;97212.56;;;1.88;73.64
7182;BME280;3632;42.724;23.298;2022-12-20T02:16:56;97205.91;;;1.84;73.17
7182;BME280;3632;42.724;23.298;2022-12-20T02:19:52;97214.34;;;1.80;72.60
7182;BME280;3632;42.724;23.298;2022-12-20T02:22:28;97204.34;;;1.75;73.50
7182;BME280;3632;42.724;23.298;2022-12-20T02:25:20;97204.38;;;1.74;73.04
7182;BME280;3632;42.724;23.298;2022-12-20T02:28:00;97200.09;;;1.79;72.76
7182;BME280;3632;42.724;23.298;2022-12-20T02:30:33;97209.53;;;1.63;73.62
7182;BME280;3632;42.724;23.298;2022-12-20T02:33:02;97196.88;;;1.71;73.16
7182;BME280;3632;42.724;23.298;2022-12-20T02:35:31;97202.72;;;1.73;72.65
7182;BME280;3632;42.724;23.298;2022-12-20T02:38:00;97199.38;;;1.71;72.94
7182;BME280;3632;42.724;23.298;2022-12-20T02:40:31;97130.50;;;1.23;72.40
7182;BME280;3632;42.724;23.298;2022-12-20T02:43:02;97200.38;;;1.59;73.27
7182;BME280;3632;42.724;23.298;2022-12-20T02:45:53;97196.25;;;1.54;73.99
7182;BME280;3632;42.724;23.298;2022-12-20T02:48:20;97167.97;;;1.40;72.61
7182;BME280;3632;42.724;23.298;2022-12-20T02:50:51;97190.22;;;1.67;72.56
7182;BME280;3632;42.724;23.298;2022-12-20T02:53:21;97193.59;;;1.64;73.05
7182;BME280;3632;42.724;23.298;2022-12-20T02:55:53;97195.28;;;1.64;73.04
7182;BME280;3632;42.724;23.298;2022-12-20T02:58:28;97195.34;;;1.61;72.12
7182;BME280;3632;42.724;23.298;2022-12-20T03:00:59;97185.34;;;1.53;71.80
7182;BME280;3632;42.724;23.298;2022-12-20T03:03:30;97176.59;;;1.17;72.51
7182;BME280;3632;42.724;23.298;2022-12-20T03:05:57;97182.22;;;1.36;72.39
7182;BME280;3632;42.724;23.298;2022-12-20T03:08:24;97186.53;;;1.26;72.69
7182;BME280;3632;42.724;23.298;2022-12-20T03:10:53;97175.56;;;1.35;72.78
7182;BME280;3632;42.724;23.298;2022-12-20T03:13:20;97046.72;;;0.57;73.63
7182;BME280;3632;42.724;23.298;2022-12-20T03:15:47;97175.56;;;1.35;72.29
7182;BME280;3632;42.724;23.298;2022-12-20T03:18:16;97175.44;;;1.43;72.53
7182;BME280;3632;42.724;23.298;2022-12-20T03:20:43;97176.25;;;1.46;71.92
7182;BME280;3632;42.724;23.298;2022-12-20T03:23:10;97171.25;;;1.43;72.82
7182;BME280;3632;42.724;23.298;2022-12-20T03:25:36;97172.06;;;1.45;72.84
7182;BME280;3632;42.724;23.298;2022-12-20T03:28:03;97170.44;;;1.41;71.99
7182;BME280;3632;42.724;23.298;2022-12-20T03:30:30;97187.25;;;1.36;72.17
7182;BME280;3632;42.724;23.298;2022-12-20T03:32:57;97134.69;;;1.19;71.44
7182;BME280;3632;42.724;23.298;2022-12-20T03:35:25;97175.47;;;1.41;72.47
7182;BME280;3632;42.724;23.298;2022-12-20T03:37:52;97178.91;;;1.35;72.62
7182;BME280;3632;42.724;23.298;2022-12-20T03:40:20;97166.34;;;1.32;73.32
7182;BME280;3632;42.724;23.298;2022-12-20T03:42:47;97165.50;;;1.35;72.84
7182;BME280;3632;42.724;23.298;2022-12-20T03:45:14;97167.34;;;1.19;72.86
7182;BME280;3632;42.724;23.298;2022-12-20T03:47:41;97163.28;;;1.08;73.31
7182;BME280;3632;42.724;23.298;2022-12-20T03:50:08;97168.28;;;1.12;73.16
7182;BME280;3632;42.724;23.298;2022-12-20T03:52:37;97166.59;;;1.14;74.22
7182;BME280;3632;42.724;23.298;2022-12-20T03:55:04;97007.00;;;0.17;73.05
7182;BME280;3632;42.724;23.298;2022-12-20T03:57:31;97157.28;;;1.19;73.46
7182;BME280;3632;42.724;23.298;2022-12-20T03:59:58;97211.78;;;1.11;73.70
7182;BME280;3632;42.724;23.298;2022-12-20T04:02:25;97165.66;;;1.21;73.21
7182;BME280;3632;42.724;23.298;2022-12-20T04:04:51;97161.47;;;1.20;73.13
7182;BME280;3632;42.724;23.298;2022-12-20T04:07:18;97163.97;;;1.22;73.30
7182;BME280;3632;42.724;23.298;2022-12-20T04:09:46;97164.97;;;1.07;73.29
7182;BME280;3632;42.724;23.298;2022-12-20T04:12:13;97159.94;;;1.10;73.60
7182;BME280;3632;42.724;23.298;2022-12-20T04:14:40;97159.09;;;1.10;73.95
7182;BME280;3632;42.724;23.298;2022-12-20T04:17:06;97159.94;;;1.10;73.46
7182;BME280;3632;42.724;23.298;2022-12-20T04:19:33;97160.78;;;1.09;73.98
7182;BME280;3632;42.724;23.298;2022-12-20T04:22:00;97165.00;;;1.04;74.61
7182;BME280;3632;42.724;23.298;2022-12-20T04:24:27;97162.47;;;1.07;73.91
7182;BME280;3632;42.724;23.298;2022-12-20T04:26:55;97163.25;;;1.12;73.92
7182;BME280;3632;42.724;23.298;2022-12-20T04:29:22;97155.91;;;0.94;74.45
7182;BME280;3632;42.724;23.298;2022-12-20T04:31:49;97155.16;;;0.87;74.50
7182;BME280;3632;42.724;23.298;2022-12-20T04:34:15;97138.41;;;0.88;75.08
7182;BME280;3632;42.724;23.298;2022-12-20T04:36:42;97154.28;;;0.90;74.98
7182;BME280;3632;42.724;23.298;2022-12-20T04:39:09;97148.41;;;0.93;74.89
7182;BME280;3632;42.724;23.298;2022-12-20T04:41:36;97161.00;;;0.86;75.30
7182;BME280;3632;42.724;23.298;2022-12-20T04:44:04;97154.34;;;0.84;74.60
7182;BME280;3632;42.724;23.298;2022-12-20T04:46:31;97152.72;;;0.77;74.85
7182;BME280;3632;42.724;23.298;2022-12-20T04:48:57;97147.66;;;0.81;74.99
7182;BME280;3632;42.724;23.298;2022-12-20T04:51:24;97062.13;;;0.23;75.31
7182;BME280;3632;42.724;23.298;2022-12-20T04:53:51;97148.59;;;0.74;75.59
7182;BME280;3632;42.724;23.298;2022-12-20T04:56:19;97146.91;;;0.73;75.58
7182;BME280;3632;42.724;23.298;2022-12-20T04:58:47;97147.88;;;0.60;75.81
7182;BME280;3632;42.724;23.298;2022-12-20T05:01:18;97186.47;;;0.50;76.68
7182;BME280;3632;42.724;23.298;2022-12-20T05:03:46;97018.41;;;-0.40;77.06
7182;BME280;3632;42.724;23.298;2022-12-20T05:06:13;97143.78;;;0.55;77.07
7182;BME280;3632;42.724;23.298;2022-12-20T05:08:40;96922.72;;;-0.80;76.26
7182;BME280;3632;42.724;23.298;2022-12-20T05:11:07;97147.97;;;0.51;76.56
7182;BME280;3632;42.724;23.298;2022-12-20T05:13:35;97096.50;;;0.11;75.77
7182;BME280;3632;42.724;23.298;2022-12-20T05:16:02;97152.88;;;0.63;76.07
7182;BME280;3632;42.724;23.298;2022-12-20T05:18:30;97138.72;;;0.58;75.84
7182;BME280;3632;42.724;23.298;2022-12-20T05:20:59;97151.19;;;0.65;76.02
7182;BME280;3632;42.724;23.298;2022-12-20T05:23:43;97212.31;;;0.57;76.07
7182;BME280;3632;42.724;23.298;2022-12-20T05:26:31;97155.44;;;0.56;76.44
7182;BME280;3632;42.724;23.298;2022-12-20T05:28:58;97093.16;;;0.12;75.73
7182;BME280;3632;42.724;23.298;2022-12-20T05:31:25;97150.47;;;0.53;76.55
7182;BME280;3632;42.724;23.298;2022-12-20T05:33:53;97045.69;;;-0.08;76.64
7182;BME280;3632;42.724;23.298;2022-12-20T05:36:20;97173.97;;;0.42;76.30
7182;BME280;3632;42.724;23.298;2022-12-20T05:38:47;97156.47;;;0.35;77.07
7182;BME280;3632;42.724;23.298;2022-12-20T05:41:14;97182.44;;;0.29;77.57
7182;BME280;3632;42.724;23.298;2022-12-20T05:43:42;97167.41;;;0.29;76.94
7182;BME280;3632;42.724;23.298;2022-12-20T05:46:08;97167.41;;;0.29;77.02
7182;BME280;3632;42.724;23.298;2022-12-20T05:48:35;97021.03;;;-0.57;77.47
7182;BME280;3632;42.724;23.298;2022-12-20T05:51:04;97117.50;;;-0.04;77.42
7182;BME280;3632;42.724;23.298;2022-12-20T05:53:31;97168.31;;;0.21;78.28
7182;BME280;3632;42.724;23.298;2022-12-20T05:55:59;97068.59;;;-0.52;78.56
7182;BME280;3632;42.724;23.298;2022-12-20T05:58:26;97167.44;;;0.23;78.42
7182;BME280;3632;42.724;23.298;2022-12-20T06:00:53;97156.50;;;0.33;77.61
7182;BME280;3632;42.724;23.298;2022-12-20T06:03:20;97155.72;;;0.25;78.01
7182;BME280;3632;42.724;23.298;2022-12-20T06:05:47;97178.25;;;0.30;78.00
7182;BME280;3632;42.724;23.298;2022-12-20T06:08:16;97081.78;;;-0.32;78.53
7182;BME280;3632;42.724;23.298;2022-12-20T06:10:47;97088.44;;;-0.29;78.50
7182;BME280;3632;42.724;23.298;2022-12-20T06:13:15;97061.03;;;-0.48;78.53
7182;BME280;3632;42.724;23.298;2022-12-20T06:15:42;97162.34;;;0.31;78.00
7182;BME280;3632;42.724;23.298;2022-12-20T06:18:09;97172.31;;;0.41;78.59
7182;BME280;3632;42.724;23.298;2022-12-20T06:20:36;97129.94;;;0.10;78.20
7182;BME280;3632;42.724;23.298;2022-12-20T06:23:06;97161.16;;;-0.40;78.73
7182;BME280;3632;42.724;23.298;2022-12-20T06:25:38;96979.00;;;-1.49;78.83
7182;BME280;3632;42.724;23.298;2022-12-20T06:28:05;97183.25;;;0.30;78.13
7182;BME280;3632;42.724;23.298;2022-12-20T06:30:33;96908.16;;;-1.50;76.98
7182;BME280;3632;42.724;23.298;2022-12-20T06:33:03;97115.75;;;0.07;76.94
7182;BME280;3632;42.724;23.298;2022-12-20T06:35:30;97168.13;;;0.40;76.69
7182;BME280;3632;42.724;23.298;2022-12-20T06:37:57;97147.41;;;0.20;77.11
7182;BME280;3632;42.724;23.298;2022-12-20T06:40:24;97006.28;;;-1.01;76.86
7182;BME280;3632;42.724;23.298;2022-12-20T06:42:53;97142.28;;;0.32;76.83
7182;BME280;3632;42.724;23.298;2022-12-20T06:45:19;97123.03;;;0.36;76.24
7182;BME280;3632;42.724;23.298;2022-12-20T06:47:46;97161.94;;;0.78;75.84
7182;BME280;3632;42.724;23.298;2022-12-20T06:50:13;97102.00;;;0.47;74.98
7182;BME280;3632;42.724;23.298;2022-12-20T06:52:40;97062.97;;;0.24;75.31
7182;BME280;3632;42.724;23.298;2022-12-20T06:55:07;97117.91;;;0.50;75.72
7182;BME280;3632;42.724;23.298;2022-12-20T06:57:34;97052.88;;;0.27;76.14
7182;BME280;3632;42.724;23.298;2022-12-20T07:00:03;97130.09;;;0.84;74.40
7182;BME280;3632;42.724;23.298;2022-12-20T07:02:30;97139.06;;;1.02;74.32
7182;BME280;3632;42.724;23.298;2022-12-20T07:04:57;97135.72;;;1.03;74.21
7182;BME280;3632;42.724;23.298;2022-12-20T07:07:24;96845.91;;;-0.75;73.91
7182;BME280;3632;42.724;23.298;2022-12-20T07:09:50;96775.53;;;-1.33;72.81
7182;BME280;3632;42.724;23.298;2022-12-20T07:12:17;97131.97;;;1.37;72.72
7182;BME280;3632;42.724;23.298;2022-12-20T07:14:44;97131.81;;;1.50;72.62
7182;BME280;3632;42.724;23.298;2022-12-20T07:17:12;97136.88;;;1.48;71.76
7182;BME280;3632;42.724;23.298;2022-12-20T07:19:40;97135.38;;;1.33;72.22
7182;BME280;3632;42.724;23.298;2022-12-20T07:22:08;96958.56;;;-0.76;72.76
7182;BME280;3632;42.724;23.298;2022-12-20T07:24:36;97055.75;;;-0.11;73.05
7182;BME280;3632;42.724;23.298;2022-12-20T07:27:04;97150.94;;;0.89;72.67
7182;BME280;3632;42.724;23.298;2022-12-20T07:29:30;97140.81;;;0.97;72.76
7182;BME280;3632;42.724;23.298;2022-12-20T07:31:57;96903.00;;;-1.22;73.54
7182;BME280;3632;42.724;23.298;2022-12-20T07:34:31;96697.78;;;-2.09;72.86
7182;BME280;3632;42.724;23.298;2022-12-20T07:37:00;96945.22;;;-0.78;74.10
7182;BME280;3632;42.724;23.298;2022-12-20T07:39:28;97143.06;;;0.40;75.13
7182;BME280;3632;42.724;23.298;2022-12-20T07:41:57;97049.22;;;-0.33;76.79
7182;BME280;3632;42.724;23.298;2022-12-20T07:44:27;96904.75;;;-1.32;78.08
7182;BME280;3632;42.724;23.298;2022-12-20T07:46:58;97086.03;;;-0.38;77.52
7182;BME280;3632;42.724;23.298;2022-12-20T07:49:27;96940.41;;;-1.06;78.54
7182;BME280;3632;42.724;23.298;2022-12-20T07:51:56;96924.50;;;-0.97;75.63
7182;BME280;3632;42.724;23.298;2022-12-20T07:54:29;97127.16;;;0.41;76.04
7182;BME280;3632;42.724;23.298;2022-12-20T07:56:59;96855.50;;;-1.24;76.44
7182;BME280;3632;42.724;23.298;2022-12-20T07:59:35;97121.34;;;0.35;75.98
7182;BME280;3632;42.724;23.298;2022-12-20T08:02:04;97089.22;;;-0.18;76.24
7182;BME280;3632;42.724;23.298;2022-12-20T08:04:36;96956.16;;;-0.93;76.22
7182;BME280;3632;42.724;23.298;2022-12-20T08:07:03;97126.38;;;0.36;76.63
7182;BME280;3632;42.724;23.298;2022-12-20T08:09:34;97141.34;;;0.44;75.80
7182;BME280;3632;42.724;23.298;2022-12-20T08:12:02;97124.31;;;-0.18;75.73
7182;BME280;3632;42.724;23.298;2022-12-20T08:14:29;97128.63;;;0.61;74.35
7182;BME280;3632;42.724;23.298;2022-12-20T08:16:57;97122.63;;;0.77;72.96
7182;BME280;3632;42.724;23.298;2022-12-20T08:19:27;96936.94;;;-0.88;72.14
7182;BME280;3632;42.724;23.298;2022-12-20T08:21:57;97147.56;;;0.92;73.28
7182;BME280;3632;42.724;23.298;2022-12-20T08:24:24;96920.94;;;-0.66;72.86
7182;BME280;3632;42.724;23.298;2022-12-20T08:26:51;96710.53;;;-1.36;72.09
7182;BME280;3632;42.724;23.298;2022-12-20T08:29:18;96729.56;;;-1.23;70.96
7182;BME280;3632;42.724;23.298;2022-12-20T08:31:45;96724.31;;;-0.94;70.34
7182;BME280;3632;42.724;23.298;2022-12-20T08:34:12;97099.91;;;1.53;71.40
7182;BME280;3632;42.724;23.298;2022-12-20T08:36:40;97097.31;;;1.61;69.78
7182;BME280;3632;42.724;23.298;2022-12-20T08:39:09;97087.47;;;1.47;69.45
7182;BME280;3632;42.724;23.298;2022-12-20T08:41:36;97098.84;;;1.71;68.02
7182;BME280;3632;42.724;23.298;2022-12-20T08:44:03;97041.69;;;1.27;67.52
7182;BME280;3632;42.724;23.298;2022-12-20T08:46:30;96871.16;;;0.54;68.43
7182;BME280;3632;42.724;23.298;2022-12-20T08:48:57;97098.19;;;2.13;68.65
7182;BME280;3632;42.724;23.298;2022-12-20T08:51:24;97090.69;;;2.10;66.14
7182;BME280;3632;42.724;23.298;2022-12-20T08:53:51;97089.72;;;2.19;66.85
7182;BME280;3632;42.724;23.298;2022-12-20T08:56:19;97087.38;;;2.56;65.70
7182;BME280;3632;42.724;23.298;2022-12-20T08:58:47;96942.16;;;1.72;64.46
7182;BME280;3632;42.724;23.298;2022-12-20T09:01:15;96983.69;;;2.82;62.98
7182;BME280;3632;42.724;23.298;2022-12-20T09:03:43;97075.91;;;3.65;61.60
7182;BME280;3632;42.724;23.298;2022-12-20T09:06:11;97068.25;;;4.05;59.89
7182;BME280;3632;42.724;23.298;2022-12-20T09:08:39;96956.41;;;3.39;58.12
7182;BME280;3632;42.724;23.298;2022-12-20T09:11:09;97065.59;;;4.45;57.48
7182;BME280;3632;42.724;23.298;2022-12-20T09:13:39;97065.06;;;4.65;57.77
7182;BME280;3632;42.724;23.298;2022-12-20T09:16:06;97051.13;;;4.83;56.15
7182;BME280;3632;42.724;23.298;2022-12-20T09:18:33;97053.91;;;4.74;55.50
7182;BME280;3632;42.724;23.298;2022-12-20T09:21:02;96863.41;;;3.28;54.95
7182;BME280;3632;42.724;23.298;2022-12-20T09:23:30;96991.13;;;4.89;54.18
7182;BME280;3632;42.724;23.298;2022-12-20T09:26:00;96951.44;;;4.34;52.93
7182;BME280;3632;42.724;23.298;2022-12-20T09:28:28;96912.78;;;4.01;53.74
7182;BME280;3632;42.724;23.298;2022-12-20T09:30:58;97029.97;;;5.15;52.79
7182;BME280;3632;42.724;23.298;2022-12-20T09:33:25;97027.09;;;5.27;52.97
7182;BME280;3632;42.724;23.298;2022-12-20T09:35:53;97018.81;;;5.51;52.11
7182;BME280;3632;42.724;23.298;2022-12-20T09:38:19;97016.63;;;5.67;52.35
7182;BME280;3632;42.724;23.298;2022-12-20T09:40:48;96960.44;;;5.57;51.09
7182;BME280;3632;42.724;23.298;2022-12-20T09:43:17;97001.25;;;6.24;50.73
7182;BME280;3632;42.724;23.298;2022-12-20T09:45:46;96917.91;;;5.16;51.36
7182;BME280;3632;42.724;23.298;2022-12-20T09:48:16;97000.59;;;5.94;50.36
7182;BME280;3632;42.724;23.298;2022-12-20T09:50:48;97001.97;;;6.03;50.93
7182;BME280;3632;42.724;23.298;2022-12-20T09:53:27;96877.78;;;5.58;49.72
7182;BME280;3632;42.724;23.298;2022-12-20T09:56:02;96967.97;;;6.59;49.03
7182;BME280;3632;42.724;23.298;2022-12-20T09:58:40;96983.34;;;7.23;47.61
7182;BME280;3632;42.724;23.298;2022-12-20T10:01:15;96982.56;;;7.64;46.34
7182;BME280;3632;42.724;23.298;2022-12-20T10:03:44;96935.97;;;7.45;46.20
7182;BME280;3632;42.724;23.298;2022-12-20T10:06:17;96954.84;;;8.02;45.44
7182;BME280;3632;42.724;23.298;2022-12-20T10:08:50;96962.69;;;8.16;44.36
7182;BME280;3632;42.724;23.298;2022-12-20T10:11:32;96954.44;;;8.51;44.04
7182;BME280;3632;42.724;23.298;2022-12-20T10:14:06;96858.00;;;8.30;43.74
7182;BME280;3632;42.724;23.298;2022-12-20T10:16:39;96929.41;;;8.42;42.88
7182;BME280;3632;42.724;23.298;2022-12-20T10:19:20;96923.22;;;8.29;43.02
7182;BME280;3632;42.724;23.298;2022-12-20T10:21:54;96877.47;;;7.50;44.18
7182;BME280;3632;42.724;23.298;2022-12-20T10:24:27;96912.38;;;8.24;43.75
7182;BME280;3632;42.724;23.298;2022-12-20T10:26:56;96903.84;;;8.65;43.05
7182;BME280;3632;42.724;23.298;2022-12-20T10:29:24;96786.03;;;8.48;42.04
7182;BME280;3632;42.724;23.298;2022-12-20T10:31:52;96887.00;;;8.63;42.13
7182;BME280;3632;42.724;23.298;2022-12-20T10:34:22;96848.97;;;8.79;41.98
7182;BME280;3632;42.724;23.298;2022-12-20T10:36:50;96899.13;;;8.94;41.80
7182;BME280;3632;42.724;23.298;2022-12-20T10:39:40;96872.44;;;9.38;41.61
7182;BME280;3632;42.724;23.298;2022-12-20T10:42:23;96833.06;;;9.62;40.86
7182;BME280;3632;42.724;23.298;2022-12-20T10:44:50;96851.72;;;10.13;40.27
7182;BME280;3632;42.724;23.298;2022-12-20T10:47:24;96803.94;;;10.49;39.77
7182;BME280;3632;42.724;23.298;2022-12-20T10:50:08;96841.19;;;11.44;38.26
7182;BME280;3632;42.724;23.298;2022-12-20T10:52:35;96847.72;;;10.73;39.74
7182;BME280;3632;42.724;23.298;2022-12-20T10:55:02;96833.94;;;10.12;39.36
7182;BME280;3632;42.724;23.298;2022-12-20T10:57:29;96768.66;;;9.60;38.91
7182;BME280;3632;42.724;23.298;2022-12-20T10:59:59;96634.69;;;8.94;39.60
7182;BME280;3632;42.724;23.298;2022-12-20T11:02:32;96833.75;;;11.70;37.67
7182;BME280;3632;42.724;23.298;2022-12-20T11:05:00;96731.66;;;11.40;37.83
7182;BME280;3632;42.724;23.298;2022-12-20T11:07:30;96818.78;;;12.63;35.82
7182;BME280;3632;42.724;23.298;2022-12-20T11:09:59;96811.59;;;12.82;35.55
7182;BME280;3632;42.724;23.298;2022-12-20T11:12:26;96786.00;;;12.82;36.05
7182;BME280;3632;42.724;23.298;2022-12-20T11:15:08;96814.47;;;12.08;35.49
7182;BME280;3632;42.724;23.298;2022-12-20T11:17:37;96773.88;;;11.60;36.06
7182;BME280;3632;42.724;23.298;2022-12-20T11:20:19;96805.41;;;13.13;34.38
7182;BME280;3632;42.724;23.298;2022-12-20T11:22:54;96767.78;;;14.52;33.03
7182;BME280;3632;42.724;23.298;2022-12-20T11:25:33;96782.38;;;14.99;31.85
7182;BME280;3632;42.724;23.298;2022-12-20T11:28:20;96785.31;;;15.30;31.43
7182;BME280;3632;42.724;23.298;2022-12-20T11:31:00;96779.56;;;15.50;30.68
7182;BME280;3632;42.724;23.298;2022-12-20T11:33:44;96780.69;;;16.03;31.29
7182;BME280;3632;42.724;23.298;2022-12-20T11:36:24;96772.69;;;15.27;31.04
7182;BME280;3632;42.724;23.298;2022-12-20T11:39:00;96752.25;;;14.17;31.77
7182;BME280;3632;42.724;23.298;2022-12-20T11:41:35;96786.59;;;15.00;30.88
7182;BME280;3632;42.724;23.298;2022-12-20T11:44:15;96462.66;;;13.21;30.64
7182;BME280;3632;42.724;23.298;2022-12-20T11:46:58;96705.47;;;14.14;31.27
7182;BME280;3632;42.724;23.298;2022-12-20T11:49:42;96430.31;;;12.46;31.49
7182;BME280;3632;42.724;23.298;2022-12-20T11:52:22;96755.69;;;13.42;32.51
7182;BME280;3632;42.724;23.298;2022-12-20T11:54:57;96753.84;;;14.44;32.36
7182;BME280;3632;42.724;23.298;2022-12-20T11:57:31;96753.44;;;14.50;32.03
7182;BME280;3632;42.724;23.298;2022-12-20T12:00:04;96722.56;;;14.26;30.87
7182;BME280;3632;42.724;23.298;2022-12-20T12:02:37;96749.00;;;14.52;31.41
7182;BME280;3632;42.724;23.298;2022-12-20T12:05:15;96753.31;;;15.23;30.97
7182;BME280;3632;42.724;23.298;2022-12-20T12:07:47;96736.88;;;15.47;30.16
7182;BME280;3632;42.724;23.298;2022-12-20T12:10:22;96731.97;;;17.19;28.86
7182;BME280;3632;42.724;23.298;2022-12-20T12:12:52;96622.94;;;15.02;28.70
7182;BME280;3632;42.724;23.298;2022-12-20T12:15:28;96662.03;;;14.60;29.46
7182;BME280;3632;42.724;23.298;2022-12-20T12:17:58;96708.38;;;14.70;29.38
7182;BME280;3632;42.724;23.298;2022-12-20T12:20:32;96743.47;;;15.51;28.96
7182;BME280;3632;42.724;23.298;2022-12-20T12:23:06;96698.16;;;16.60;28.04
7182;BME280;3632;42.724;23.298;2022-12-20T12:25:37;96587.84;;;16.24;27.06
7182;BME280;3632;42.724;23.298;2022-12-20T12:28:04;96720.91;;;16.22;28.18
7182;BME280;3632;42.724;23.298;2022-12-20T12:30:37;96727.81;;;16.10;28.03
7182;BME280;3632;42.724;23.298;2022-12-20T12:33:10;96712.69;;;17.55;26.99
7182;BME280;3632;42.724;23.298;2022-12-20T12:35:55;96716.38;;;19.21;26.35
7182;BME280;3632;42.724;23.298;2022-12-20T12:38:54;96702.59;;;20.23;24.14
7182;BME280;3632;42.724;23.298;2022-12-20T12:41:50;96676.16;;;20.46;23.67
7182;BME280;3632;42.724;23.298;2022-12-20T12:44:34;96700.97;;;21.02;23.45
7182;BME280;3632;42.724;23.298;2022-12-20T12:47:09;96647.97;;;20.16;23.22
7182;BME280;3632;42.724;23.298;2022-12-20T12:49:38;96698.97;;;20.61;23.36
7182;BME280;3632;42.724;23.298;2022-12-20T12:52:06;96730.38;;;20.30;23.27
7182;BME280;3632;42.724;23.298;2022-12-20T12:54:36;96484.97;;;19.44;22.69
7182;BME280;3632;42.724;23.298;2022-12-20T12:57:10;96583.69;;;20.12;23.71
7182;BME280;3632;42.724;23.298;2022-12-20T12:59:41;96625.97;;;19.38;23.84
7182;BME280;3632;42.724;23.298;2022-12-20T13:02:31;96680.53;;;19.91;23.39
7182;BME280;3632;42.724;23.298;2022-12-20T13:05:00;96683.06;;;17.50;25.45
7182;BME280;3632;42.724;23.298;2022-12-20T13:07:39;96682.25;;;16.66;26.64
7182;BME280;3632;42.724;23.298;2022-12-20T13:13:20;96671.31;;;17.36;25.76
7182;BME280;3632;42.724;23.298;2022-12-20T13:15:50;96670.56;;;18.06;25.12
7182;BME280;3632;42.724;23.298;2022-12-20T13:18:35;96673.78;;;19.15;24.39
7182;BME280;3632;42.724;23.298;2022-12-20T13:21:35;96672.56;;;18.81;24.21
7182;BME280;3632;42.724;23.298;2022-12-20T13:24:36;96652.44;;;18.36;24.80
7182;BME280;3632;42.724;23.298;2022-12-20T13:27:22;96618.22;;;18.82;24.58
7182;BME280;3632;42.724;23.298;2022-12-20T13:30:24;96671.84;;;19.83;24.08
7182;BME280;3632;42.724;23.298;2022-12-20T13:33:16;96665.19;;;19.43;24.15
7182;BME280;3632;42.724;23.298;2022-12-20T13:36:03;96388.00;;;17.63;23.95
7182;BME280;3632;42.724;23.298;2022-12-20T13:38:52;96664.41;;;18.95;24.16